Latest Coastal Weather Observations for Lockhart River

IDQ60701

Issued at 5:02 am EST Wednesday 22 April 2015 (issued every 10 minutes, with the page automatically refreshed every 10 minutes)

About coastal observations | Map of coastal stations | Coastal observations for QLD | Marine services | Other Formats
Station Details ID: 028008 Name: LOCKHART RIVER AIRPORT Lat: -12.79 Lon: 143.30 Height: 18.5 m
Data from the previous 72 hours. | See also: Recent months at Lockhart River
Date/Time
EST
Temp

°C
Wind Pressure Rain
since 9am
mm
Weather Cloud Vis
km
Sea
Height
m
Swell
Dir
 
Speed
knots
Gust
knots
hPa Trend Height
m
Period
s
Dir
22/05:00am 25.4 SE 8 11 1009.6 - 1.0 - Partly cloudy - - - - -
22/04:57am 25.4 SE 9 12 1009.6 - 1.0 - Partly cloudy - - - - -
22/04:30am 26.0 ESE 10 15 1009.4 - 0.6 - Partly cloudy - - - - -
22/04:00am 25.5 ESE 7 9 1009.5 - 0.4 - Partly cloudy - - - - -
22/03:30am 25.5 SE 8 11 1009.7 - 0.4 - Partly cloudy - - - - -
22/03:00am 25.5 SE 9 15 1009.5 - 0.4 - Partly cloudy - - - - -
22/02:43am 25.1 SE 7 10 1009.7 - 0.4 - Partly cloudy - - - - -
22/02:30am 25.4 SE 9 12 1009.7 - 0.4 - Partly cloudy - - - - -
22/02:28am 25.4 SE 8 12 1009.7 - 0.4 - Partly cloudy - - - - -
22/02:00am 25.8 SE 8 10 1009.9 - 0.2 - Partly cloudy - - - - -
22/01:30am 25.8 SE 9 11 1010.3 - 0.2 - Partly cloudy - - - - -
22/01:00am 25.9 SE 8 11 1010.8 - 0.2 - Partly cloudy - - - - -
22/12:30am 26.1 SE 9 13 1011.0 - 0.2 - Partly cloudy - - - - -
22/12:00am 26.1 ESE 8 13 1011.3 - 0.2 - Partly cloudy - - - - -
 
Date/Time
EST
Temp

°C
Wind Pressure Rain
since 9am
mm
Weather Cloud Vis
km
Sea
Height
m
Swell
Dir
 
Speed
knots
Gust
knots
hPa Trend Height
m
Period
s
Dir
21/11:30pm 26.1 SE 11 18 1011.4 - 0.2 - Partly cloudy - - - - -
21/11:00pm 26.1 ESE 10 13 1011.7 - 0.2 - Partly cloudy - - - - -
21/10:30pm 26.5 ESE 10 15 1011.8 - 0.2 - Partly cloudy - - - - -
21/10:00pm 26.8 ESE 12 17 1011.9 - 0.2 - Partly cloudy - - - - -
21/09:30pm 26.6 SE 11 15 1012.0 - 0.2 - Partly cloudy - - - - -
21/09:00pm 26.7 SE 11 15 1011.8 - 0.2 - Partly cloudy - - - - -
21/08:30pm 26.4 SE 8 10 1011.8 - 0.2 - Partly cloudy - - - - -
21/08:00pm 26.4 SE 9 13 1011.4 - 0.2 - Partly cloudy - - - - -
21/07:30pm 26.5 SE 7 10 1010.8 - 0.2 - Partly cloudy - - - - -
21/07:00pm 26.8 SE 10 12 1010.6 - 0.2 - Partly cloudy - - - - -
21/06:30pm 26.9 SE 11 16 1010.2 - 0.2 - Partly cloudy - - - - -
21/06:00pm 27.2 SE 12 17 1009.8 - 0.2 - Partly cloudy - - - - -
21/05:30pm 27.5 SE 13 17 1009.5 - 0.2 - Partly cloudy - - - - -
21/05:00pm 28.3 ESE 11 15 1009.4 - 0.2 - - - - - - -
21/04:30pm 28.9 ESE 13 18 1009.2 - 0.2 - Partly cloudy - - - - -
21/04:00pm 28.9 ESE 12 17 1009.1 - 0.2 - Partly cloudy - - - - -
21/03:30pm 29.3 ESE 12 18 1009.2 - 0.2 - Partly cloudy - - - - -
21/03:00pm 29.4 ESE 15 25 1009.2 - 0.2 - Partly cloudy - - - - -
21/02:59pm 29.3 ESE 15 25 1009.3 - 0.2 - Partly cloudy - - - - -
21/02:30pm 29.7 ESE 15 22 1009.5 - 0.2 - Partly cloudy - - - - -
21/02:10pm 29.6 SE 15 25 1009.7 - 0.2 - Partly cloudy - - - - -
21/02:00pm 30.0 ESE 14 19 1009.9 - 0.2 - Partly cloudy - - - - -
21/01:30pm 29.7 ESE 14 20 1010.2 - 0.2 - Partly cloudy - - - - -
21/01:00pm 29.9 SE 15 21 1010.7 - 0.2 - Partly cloudy - - - - -
21/12:30pm 29.2 SE 16 22 1011.1 - 0.2 - Partly cloudy - - - - -
21/12:00pm 28.4 ESE 13 20 1011.3 - 0.2 - Partly cloudy - - - - -
21/11:30am 28.9 ESE 12 19 1011.7 - 0.2 - Partly cloudy - - - - -
21/11:00am 29.1 ESE 14 21 1011.9 - 0.2 - Partly cloudy - - - - -
21/10:30am 29.0 ESE 14 22 1012.2 - 0.2 - Partly cloudy - - - - -
21/10:00am 28.1 ESE 13 19 1012.4 - 0.2 - Partly cloudy - - - - -
21/09:30am 28.4 ESE 13 20 1012.1 - 0.0 - Partly cloudy - - - - -
21/09:00am 27.5 ESE 14 19 1011.9 - 5.6 Fine Mostly cloudy 15 - - - -
21/08:30am 27.7 ESE 12 17 1011.7 - 5.6 - Partly cloudy - - - - -
21/08:00am 26.9 ESE 10 16 1011.5 - 5.6 - Partly cloudy - - - - -
21/07:30am 26.2 ESE 10 13 1011.4 - 5.6 - Partly cloudy - - - - -
21/07:24am 26.3 ESE 9 13 1011.3 - 5.6 - Partly cloudy - - - - -
21/07:11am 26.0 ESE 9 12 1011.1 - 5.6 - Partly cloudy - - - - -
21/07:00am 25.8 ESE 7 11 1011.0 - 5.6 - Partly cloudy - - - - -
21/06:30am 25.3 ESE 7 10 1010.5 - 5.6 - - - - - - -
21/06:00am 25.2 SE 6 8 1010.4 - 5.6 - Partly cloudy - - - - -
21/05:31am 25.3 SSE 5 8 1010.4 - 5.6 - Partly cloudy - - - - -
21/05:30am 25.4 SSE 5 8 1010.4 - 5.4 - Partly cloudy - - - - -
21/05:12am 25.5 SSE 4 6 1010.3 - 4.6 - Partly cloudy - - - - -
21/05:00am 25.7 SSE 7 11 1010.1 - 4.6 - Partly cloudy - - - - -
21/04:50am 25.9 SE 8 13 1010.0 - 4.6 - Partly cloudy - - - - -
21/04:30am 25.2 SE 3 5 1010.0 - 4.6 - Partly cloudy - - - - -
21/04:00am 25.0 SSW 5 7 1009.9 - 4.6 - Partly cloudy - - - - -
21/03:46am 25.4 SE 6 8 1009.8 - 4.6 - Partly cloudy - - - - -
21/03:30am 25.1 SSE 5 7 1009.8 - 4.6 - Partly cloudy - - - - -
21/03:00am 25.2 SE 6 8 1009.7 - 4.6 - Partly cloudy - - - - -
21/02:30am 24.6 SSE 4 5 1010.1 - 4.4 - Cloudy - - - - -
21/02:00am 24.7 SSE 3 5 1010.4 - 4.4 - Partly cloudy - - - - -
21/01:30am 24.8 S 3 5 1010.7 - 4.4 - Cloudy - - - - -
21/01:00am 25.1 S 4 6 1011.2 - 0.4 - Partly cloudy - - - - -
21/12:30am 25.1 S 2 3 1011.5 - 0.4 - Partly cloudy - - - - -
21/12:04am 25.3 S 4 6 1011.9 - 0.4 - Partly cloudy - - - - -
21/12:03am 25.3 S 4 6 1012.0 - 0.4 - Partly cloudy - - - - -
21/12:00am 25.4 SSE 4 6 1011.9 - 0.4 - Partly cloudy - - - - -
 
Date/Time
EST
Temp

°C
Wind Pressure Rain
since 9am
mm
Weather Cloud Vis
km
Sea
Height
m
Swell
Dir
 
Speed
knots
Gust
knots
hPa Trend Height
m
Period
s
Dir
20/11:53pm 25.4 SSE 4 6 1012.1 - 0.4 - Partly cloudy - - - - -
20/11:44pm 25.3 SSE 4 6 1012.2 - 0.4 - Partly cloudy - - - - -
20/11:30pm 25.2 SSE 4 5 1012.2 - 0.4 - Partly cloudy - - - - -
20/11:00pm 25.3 SSE 5 8 1012.2 - 0.4 - Partly cloudy - - - - -
20/10:59pm 25.3 SSE 5 8 1012.2 - 0.4 - Partly cloudy - - - - -
20/10:31pm 25.5 SE 10 14 1012.1 - 0.4 - Partly cloudy - - - - -
20/10:30pm 25.5 SE 10 14 1012.1 - 0.4 - Partly cloudy - - - - -
20/10:14pm 25.6 SE 15 21 1011.8 - 0.4 - Partly cloudy - - - - -
20/10:06pm 25.3 S 5 7 1011.8 - 0.4 - Partly cloudy - - - - -
20/10:00pm 25.2 S 5 6 1011.7 - 0.4 - Partly cloudy - - - - -
20/09:30pm 25.4 ESE 7 11 1011.8 - 0.4 - Partly cloudy - - - - -
20/09:22pm 25.4 ESE 9 13 1012.1 - 0.4 - Partly cloudy - - - - -
20/09:00pm 25.8 SE 7 14 1011.8 - 0.4 - Partly cloudy - - - - -
20/08:49pm 25.7 SSE 5 8 1012.0 - 0.0 - Partly cloudy - - - - -
20/08:31pm 25.6 SSE 6 8 1011.7 - 0.0 - Partly cloudy - - - - -
20/08:30pm 25.6 SSE 6 8 1011.6 - 0.0 - Partly cloudy - - - - -
20/08:08pm 26.5 SE 13 18 1011.4 - 0.0 - Partly cloudy - - - - -
20/08:00pm 26.9 ESE 9 17 1011.2 - 0.0 - Partly cloudy - - - - -
20/07:30pm 26.9 ESE 8 11 1011.0 - 0.0 - Partly cloudy - - - - -
20/07:12pm 26.8 ESE 8 11 1010.8 - 0.0 - Partly cloudy - - - - -
20/07:00pm 26.6 ESE 7 10 1010.6 - 0.0 - Partly cloudy - - - - -
20/06:34pm 26.4 SE 5 9 1010.5 - 0.0 - Partly cloudy - - - - -
20/06:30pm 26.5 SE 7 10 1010.5 - 0.0 - Partly cloudy - - - - -
20/06:00pm 27.4 ESE 9 13 1010.0 - 0.0 - Partly cloudy - - - - -
20/05:30pm 27.7 ESE 9 14 1010.0 - 0.0 - Partly cloudy - - - - -
20/05:20pm 27.9 ESE 11 17 1009.9 - 0.0 - Partly cloudy - - - - -
20/05:00pm 28.2 ESE 10 14 1009.5 - 0.0 - Partly cloudy - - - - -
20/04:30pm 28.5 E 10 16 1009.1 - 0.0 - Partly cloudy - - - - -
20/04:00pm 28.3 ESE 13 19 1008.9 - 0.0 - Partly cloudy - - - - -
20/03:30pm 28.8 ESE 11 17 1009.0 - 0.0 - Partly cloudy - - - - -
20/03:00pm 29.1 ESE 11 17 1009.0 - 0.0 - Partly cloudy - - - - -
20/02:30pm 29.3 ESE 11 17 1009.5 - 0.0 - Partly cloudy - - - - -
20/02:26pm 28.8 ESE 12 16 1009.6 - 0.0 - Partly cloudy - - - - -
20/02:00pm 28.0 ESE 12 18 1009.9 - 0.0 - Partly cloudy - - - - -
20/01:46pm 28.4 ESE 15 21 1010.0 - 0.0 - Partly cloudy - - - - -
20/01:30pm 28.2 ESE 14 20 1010.1 - 0.0 - Partly cloudy - - - - -
20/01:08pm 28.6 ESE 12 19 1010.1 - 0.0 - Partly cloudy - - - - -
20/01:00pm 28.5 ESE 11 17 1010.3 - 0.0 - Partly cloudy - - - - -
20/12:52pm 28.1 ESE 15 25 1010.3 - 0.0 - Partly cloudy - - - - -
20/12:46pm 28.5 ESE 16 25 1010.4 - 0.0 - Partly cloudy - - - - -
20/12:45pm 28.5 ESE 15 25 1010.4 - 0.0 - Partly cloudy - - - - -
20/12:30pm 27.1 E 11 17 1010.8 - 0.0 - Partly cloudy - - - - -
20/12:29pm 27.1 ESE 12 18 1010.8 - 0.0 - Partly cloudy - - - - -
20/12:17pm 28.1 ESE 15 25 1011.1 - 0.0 - Partly cloudy - - - - -
20/12:00pm 28.8 ESE 12 19 1011.2 - 0.0 - Partly cloudy - - - - -
20/11:30am 29.1 ESE 14 21 1011.7 - 0.0 - Partly cloudy - - - - -
20/11:00am 28.8 ESE 15 22 1012.2 - 0.0 - Partly cloudy - - - - -
20/10:30am 28.4 ESE 15 20 1012.3 - 0.0 - Partly cloudy - - - - -
20/10:00am 28.5 ESE 13 20 1012.2 - 0.0 - Partly cloudy - - - - -
20/09:30am 28.5 ESE 14 22 1012.0 - 0.0 - Partly cloudy - - - - -
20/09:00am 28.0 SE 11 17 1011.8 - 6.2 Fine Mostly cloudy 15 - - - -
20/08:30am 27.3 SE 10 14 1012.0 - 6.2 - Partly cloudy - - - - -
20/08:18am 26.6 SE 8 14 1011.9 - 6.2 - Partly cloudy - - - - -
20/08:00am 26.1 SE 8 9 1011.9 - 6.2 - Partly cloudy - - - - -
20/07:51am 26.1 SE 8 13 1011.7 - 6.2 - Partly cloudy - - - - -
20/07:30am 26.4 ESE 8 11 1011.4 - 5.4 - Partly cloudy - - - - -
20/07:25am 26.3 ESE 8 11 1011.4 - 5.4 - Partly cloudy - - - - -
20/07:11am 26.1 ESE 7 9 1011.4 - 5.4 - Partly cloudy - - - - -
20/07:00am 25.8 SE 7 9 1011.1 - 5.4 - Partly cloudy - - - - -
20/06:41am 25.5 SE 4 8 1010.9 - 5.4 - Partly cloudy - - - - -
20/06:30am 24.8 CALM 0 0 1010.9 - 5.4 - Partly cloudy - - - - -
20/06:27am 24.8 CALM 0 2 1010.9 - 5.4 - Partly cloudy - - - - -
20/06:00am 24.8 CALM 0 3 1011.0 - 5.4 - Partly cloudy - - - - -
20/05:49am 24.8 CALM 0 5 1010.9 - 5.4 - Partly cloudy - - - - -
20/05:30am 24.7 SSE 1 4 1010.9 - 5.4 - Partly cloudy - - - - -
20/05:27am 24.7 CALM 0 0 1010.9 - 5.4 - Partly cloudy - - - - -
20/05:09am 24.6 CALM 0 0 1010.7 - 5.4 - Partly cloudy - - - - -
20/05:07am 24.7 CALM 0 0 1010.7 - 5.4 - Partly cloudy - - - - -
20/05:00am 24.7 CALM 0 0 1010.8 - 5.4 - Partly cloudy - - - - -
20/04:45am 24.6 CALM 0 0 1010.9 - 5.4 - Partly cloudy - - - - -
20/04:30am 24.7 CALM 0 0 1010.9 - 5.4 - Partly cloudy - - - - -
20/04:00am 24.8 ESE 7 11 1010.9 - 5.4 - Partly cloudy - - - - -
20/03:59am 24.8 ESE 7 11 1010.9 - 5.4 - Partly cloudy - - - - -
20/03:30am 25.2 SE 12 18 1010.8 - 5.4 - Partly cloudy - - - - -
20/03:22am 25.6 SE 7 17 1010.6 - 4.0 - Partly cloudy - - - - -
20/03:00am 25.5 SE 7 10 1010.6 - 4.0 - Partly cloudy - - - - -
20/02:45am 25.7 SE 10 14 1010.6 - 4.0 - Partly cloudy - - - - -
20/02:30am 26.3 ESE 6 8 1010.8 - 3.0 - Partly cloudy - - - - -
20/02:26am 26.4 ESE 7 9 1010.8 - 3.0 - Partly cloudy - - - - -
20/02:18am 26.4 ESE 8 11 1010.9 - 3.0 - Partly cloudy - - - - -
20/02:06am 26.5 SE 10 13 1011.0 - 3.0 - Partly cloudy - - - - -
20/02:00am 26.6 SE 10 14 1011.1 - 3.0 - Partly cloudy - - - - -
20/01:32am 26.6 SE 9 14 1011.4 - 3.0 - Partly cloudy - - - - -
20/01:30am 26.5 SE 9 14 1011.4 - 3.0 - Partly cloudy - - - - -
20/01:00am 26.4 SE 8 11 1011.8 - 3.0 - Partly cloudy - - - - -
20/12:30am 26.4 SE 7 9 1012.2 - 3.0 - Partly cloudy - - - - -
20/12:21am 26.4 SE 9 11 1012.3 - 3.0 - Partly cloudy - - - - -
20/12:00am 26.4 SE 8 11 1012.5 - 3.0 - Partly cloudy - - - - -
 
Date/Time
EST
Temp

°C
Wind Pressure Rain
since 9am
mm
Weather Cloud Vis
km
Sea
Height
m
Swell
Dir
 
Speed
knots
Gust
knots
hPa Trend Height
m
Period
s
Dir
19/11:30pm 26.4 SE 8 11 1012.7 - 3.0 - Partly cloudy - - - - -
19/11:00pm 26.4 ESE 10 15 1012.8 - 3.0 - Partly cloudy - - - - -
19/10:51pm 26.4 SE 10 15 1012.8 - 3.0 - Partly cloudy - - - - -
19/10:30pm 26.2 ESE 9 12 1012.6 - 3.0 - Partly cloudy - - - - -
19/10:27pm 26.2 ESE 9 12 1012.6 - 3.0 - Partly cloudy - - - - -
19/10:00pm 26.2 ESE 8 11 1012.7 - 3.0 - Partly cloudy - - - - -
19/09:30pm 26.0 ESE 8 11 1012.7 - 3.0 - Partly cloudy - - - - -
19/09:23pm 25.9 SE 8 10 1012.7 - 3.0 - Partly cloudy - - - - -
19/09:10pm 26.0 ESE 9 14 1012.5 - 3.0 - Partly cloudy - - - - -
19/09:00pm 26.0 SE 9 12 1012.2 - 2.8 - Partly cloudy - - - - -
19/08:54pm 26.0 ESE 9 13 1012.2 - 2.8 - Partly cloudy - - - - -
19/08:30pm 26.3 ESE 7 11 1012.0 - 2.0 - Cloudy - - - - -
19/08:25pm 26.7 SE 5 7 1012.0 - 1.4 - Partly cloudy - - - - -
19/08:00pm 27.1 SE 9 12 1011.6 - 0.2 - Partly cloudy - - - - -
19/07:54pm 27.1 SE 9 13 1011.5 - 0.2 - Partly cloudy - - - - -
19/07:30pm 26.9 SE 8 10 1011.0 - 0.2 - Partly cloudy - - - - -
19/07:24pm 26.9 SE 8 12 1010.9 - 0.2 - Partly cloudy - - - - -
19/07:00pm 27.0 ESE 11 15 1010.7 - 0.2 - Partly cloudy - - - - -
19/06:30pm 26.9 SE 7 10 1010.4 - 0.2 - Partly cloudy - - - - -
19/06:00pm 27.3 SE 12 18 1010.2 - 0.2 - Partly cloudy - - - - -
19/05:30pm 27.7 SE 10 14 1010.3 - 0.2 - Partly cloudy - - - - -
19/05:00pm 28.0 ESE 12 18 1010.2 - 0.2 - Partly cloudy - - - - -
19/04:30pm 28.3 ESE 11 17 1010.2 - 0.2 - Partly cloudy - - - - -
19/04:00pm 29.5 SE 13 18 1010.1 - 0.2 - Partly cloudy - - - - -
19/03:30pm 28.4 SE 14 21 1010.2 - 0.2 - Partly cloudy - - - - -
19/03:00pm 28.8 ESE 9 12 1010.4 - 0.2 Fine Mostly cloudy 18 - - - -
19/02:30pm 28.9 ESE 11 15 1010.9 - 0.2 - Partly cloudy - - - - -
19/02:00pm 29.0 E 11 17 1011.1 - 0.2 - Partly cloudy - - - - -
19/01:30pm 29.1 ESE 13 19 1011.5 - 0.2 - Partly cloudy - - - - -
19/01:00pm 29.3 ESE 11 17 1011.6 - 0.2 - Partly cloudy - - - - -
19/12:30pm 28.7 E 12 17 1012.1 - 0.2 - - - - - - -
19/12:00pm 28.7 ESE 13 19 1012.4 - 0.2 - Partly cloudy - - - - -
19/11:36am 28.7 E 12 19 1012.9 - 0.2 - Partly cloudy - - - - -
19/11:30am 29.1 E 11 18 1013.0 - 0.2 - Partly cloudy - - - - -
19/11:00am 28.6 ESE 10 14 1013.3 - 0.2 - Partly cloudy - - - - -
19/10:59am 28.7 ESE 10 15 1013.3 - 0.2 - Partly cloudy - - - - -
19/10:30am 28.6 ESE 10 15 1013.4 - 0.2 - Partly cloudy - - - - -
19/10:00am 27.9 ESE 9 14 1013.4 - 0.0 - Partly cloudy - - - - -
19/09:51am 27.8 ESE 9 13 1013.4 - 0.0 - Partly cloudy - - - - -
19/09:33am 27.7 ESE 8 11 1013.3 - 0.0 - Partly cloudy - - - - -
19/09:30am 27.6 ESE 8 11 1013.3 - 0.0 - Partly cloudy - - - - -
19/09:00am 27.5 E 9 13 1012.9 - 7.8 Distant precip. Mostly cloudy 18 - - - -
19/08:30am 27.1 ESE 8 12 1012.8 - 7.8 - Partly cloudy - - - - -
19/08:06am 26.2 SSE 5 6 1012.9 - 7.8 - Partly cloudy - - - - -
19/08:00am 25.7 S 5 6 1012.8 - 7.8 - Partly cloudy - - - - -
19/07:30am 25.8 SE 3 4 1012.4 - 7.8 - Partly cloudy - - - - -
19/07:10am 25.4 SSE 1 3 1012.3 - 7.8 - Partly cloudy - - - - -
19/07:00am 25.5 SSE 3 4 1012.1 - 7.8 - Partly cloudy - - - - -
19/06:30am 25.7 ESE 5 7 1011.8 - 7.8 - Partly cloudy - - - - -
19/06:00am 25.9 ESE 6 9 1011.3 - 7.8 - Partly cloudy - - - - -
19/05:30am 26.1 ESE 7 10 1011.1 - 7.8 - Partly cloudy - - - - -

Other Formats:

Comma delimited format used in spreadsheet applications
http://www.bom.gov.au/fwo/IDQ60701/IDQ60701.94186.axf

JavaScript Object Notation format (JSON) in row-major order
http://www.bom.gov.au/fwo/IDQ60701/IDQ60701.94186.json